sensor_id;sensor_type;location;lat;lon;timestamp;P1;durP1;ratioP1;P2;durP2;ratioP2
51292;SDS011;37377;45.186;9.778;2023-06-22T00:02:16;26.17;;;11.13;;
51292;SDS011;37377;45.186;9.778;2023-06-22T00:04:43;20.90;;;10.52;;
51292;SDS011;37377;45.186;9.778;2023-06-22T00:07:10;23.70;;;11.35;;
51292;SDS011;37377;45.186;9.778;2023-06-22T00:09:53;26.25;;;12.55;;
51292;SDS011;37377;45.186;9.778;2023-06-22T00:14:53;24.00;;;14.52;;
51292;SDS011;37377;45.186;9.778;2023-06-22T00:17:20;27.55;;;15.55;;
51292;SDS011;37377;45.186;9.778;2023-06-22T00:19:47;23.67;;;14.75;;
51292;SDS011;37377;45.186;9.778;2023-06-22T00:22:37;19.05;;;13.20;;
51292;SDS011;37377;45.186;9.778;2023-06-22T00:25:36;19.95;;;13.68;;
51292;SDS011;37377;45.186;9.778;2023-06-22T00:28:03;23.40;;;14.38;;
51292;SDS011;37377;45.186;9.778;2023-06-22T00:30:31;18.58;;;13.27;;
51292;SDS011;37377;45.186;9.778;2023-06-22T00:32:58;21.20;;;13.23;;
51292;SDS011;37377;45.186;9.778;2023-06-22T00:35:27;22.73;;;14.15;;
51292;SDS011;37377;45.186;9.778;2023-06-22T00:38:28;17.13;;;12.85;;
51292;SDS011;37377;45.186;9.778;2023-06-22T00:41:09;18.98;;;12.98;;
51292;SDS011;37377;45.186;9.778;2023-06-22T00:43:36;27.98;;;14.10;;
51292;SDS011;37377;45.186;9.778;2023-06-22T00:46:03;26.35;;;13.90;;
51292;SDS011;37377;45.186;9.778;2023-06-22T00:48:30;19.80;;;15.20;;
51292;SDS011;37377;45.186;9.778;2023-06-22T00:51:01;26.00;;;14.65;;
51292;SDS011;37377;45.186;9.778;2023-06-22T00:53:31;35.42;;;17.30;;
51292;SDS011;37377;45.186;9.778;2023-06-22T00:56:02;23.52;;;14.90;;
51292;SDS011;37377;45.186;9.778;2023-06-22T00:58:30;25.35;;;14.98;;
51292;SDS011;37377;45.186;9.778;2023-06-22T01:00:57;19.05;;;14.27;;
51292;SDS011;37377;45.186;9.778;2023-06-22T01:03:33;17.73;;;14.48;;
51292;SDS011;37377;45.186;9.778;2023-06-22T01:06:54;22.60;;;15.07;;
51292;SDS011;37377;45.186;9.778;2023-06-22T01:09:30;26.77;;;14.73;;
51292;SDS011;37377;45.186;9.778;2023-06-22T01:12:32;23.38;;;14.48;;
51292;SDS011;37377;45.186;9.778;2023-06-22T01:15:44;22.58;;;14.77;;
51292;SDS011;37377;45.186;9.778;2023-06-22T01:18:04;32.17;;;14.95;;
51292;SDS011;37377;45.186;9.778;2023-06-22T01:20:35;22.90;;;15.32;;
51292;SDS011;37377;45.186;9.778;2023-06-22T01:23:07;22.23;;;15.32;;
51292;SDS011;37377;45.186;9.778;2023-06-22T01:28:54;31.40;;;15.20;;
51292;SDS011;37377;45.186;9.778;2023-06-22T01:31:23;28.17;;;16.05;;
51292;SDS011;37377;45.186;9.778;2023-06-22T01:34:11;28.58;;;14.90;;
51292;SDS011;37377;45.186;9.778;2023-06-22T01:36:39;26.35;;;15.18;;
51292;SDS011;37377;45.186;9.778;2023-06-22T01:39:06;27.55;;;15.10;;
51292;SDS011;37377;45.186;9.778;2023-06-22T01:41:34;22.50;;;15.90;;
51292;SDS011;37377;45.186;9.778;2023-06-22T01:44:44;21.00;;;15.65;;
51292;SDS011;37377;45.186;9.778;2023-06-22T01:48:07;25.50;;;15.60;;
51292;SDS011;37377;45.186;9.778;2023-06-22T01:51:03;21.45;;;14.82;;
51292;SDS011;37377;45.186;9.778;2023-06-22T01:53:29;19.80;;;14.68;;
51292;SDS011;37377;45.186;9.778;2023-06-22T01:56:07;24.65;;;14.40;;
51292;SDS011;37377;45.186;9.778;2023-06-22T01:58:37;23.60;;;14.82;;
51292;SDS011;37377;45.186;9.778;2023-06-22T02:01:12;17.55;;;13.88;;
51292;SDS011;37377;45.186;9.778;2023-06-22T02:06:39;18.77;;;13.73;;
51292;SDS011;37377;45.186;9.778;2023-06-22T02:09:14;19.10;;;13.35;;
51292;SDS011;37377;45.186;9.778;2023-06-22T02:11:42;20.65;;;13.35;;
51292;SDS011;37377;45.186;9.778;2023-06-22T02:14:10;22.92;;;13.38;;
51292;SDS011;37377;45.186;9.778;2023-06-22T02:16:40;25.38;;;15.18;;
51292;SDS011;37377;45.186;9.778;2023-06-22T02:19:08;20.85;;;13.98;;
51292;SDS011;37377;45.186;9.778;2023-06-22T02:21:35;18.40;;;11.60;;
51292;SDS011;37377;45.186;9.778;2023-06-22T02:24:02;19.33;;;12.70;;
51292;SDS011;37377;45.186;9.778;2023-06-22T02:26:33;17.73;;;12.38;;
51292;SDS011;37377;45.186;9.778;2023-06-22T02:29:14;20.02;;;12.48;;
51292;SDS011;37377;45.186;9.778;2023-06-22T02:31:42;16.45;;;13.07;;
51292;SDS011;37377;45.186;9.778;2023-06-22T02:34:08;30.75;;;13.40;;
51292;SDS011;37377;45.186;9.778;2023-06-22T02:36:35;21.63;;;13.55;;
51292;SDS011;37377;45.186;9.778;2023-06-22T02:39:02;17.85;;;13.20;;
51292;SDS011;37377;45.186;9.778;2023-06-22T02:41:30;20.50;;;12.20;;
51292;SDS011;37377;45.186;9.778;2023-06-22T02:43:58;19.65;;;12.18;;
51292;SDS011;37377;45.186;9.778;2023-06-22T02:46:25;13.43;;;11.63;;
51292;SDS011;37377;45.186;9.778;2023-06-22T02:48:55;15.55;;;11.00;;
51292;SDS011;37377;45.186;9.778;2023-06-22T02:51:22;19.00;;;11.85;;
51292;SDS011;37377;45.186;9.778;2023-06-22T02:53:49;23.55;;;11.48;;
51292;SDS011;37377;45.186;9.778;2023-06-22T02:56:19;14.68;;;10.98;;
51292;SDS011;37377;45.186;9.778;2023-06-22T02:59:05;15.65;;;11.90;;
51292;SDS011;37377;45.186;9.778;2023-06-22T03:01:40;18.88;;;11.80;;
51292;SDS011;37377;45.186;9.778;2023-06-22T03:04:31;16.35;;;12.25;;
51292;SDS011;37377;45.186;9.778;2023-06-22T03:07:03;20.53;;;11.33;;
51292;SDS011;37377;45.186;9.778;2023-06-22T03:09:32;17.30;;;10.70;;
51292;SDS011;37377;45.186;9.778;2023-06-22T03:11:59;13.82;;;9.75;;
51292;SDS011;37377;45.186;9.778;2023-06-22T03:14:43;17.67;;;11.57;;
51292;SDS011;37377;45.186;9.778;2023-06-22T03:17:36;17.50;;;10.45;;
51292;SDS011;37377;45.186;9.778;2023-06-22T03:20:04;14.98;;;9.40;;
51292;SDS011;37377;45.186;9.778;2023-06-22T03:22:38;15.43;;;9.57;;
51292;SDS011;37377;45.186;9.778;2023-06-22T03:25:06;19.27;;;9.93;;
51292;SDS011;37377;45.186;9.778;2023-06-22T03:27:42;12.02;;;9.75;;
51292;SDS011;37377;45.186;9.778;2023-06-22T03:30:09;16.63;;;11.48;;
51292;SDS011;37377;45.186;9.778;2023-06-22T03:32:36;15.18;;;12.18;;
51292;SDS011;37377;45.186;9.778;2023-06-22T03:35:05;13.82;;;11.85;;
51292;SDS011;37377;45.186;9.778;2023-06-22T03:37:35;18.48;;;12.85;;
51292;SDS011;37377;45.186;9.778;2023-06-22T03:40:02;19.70;;;13.07;;
51292;SDS011;37377;45.186;9.778;2023-06-22T03:42:33;24.65;;;13.90;;
51292;SDS011;37377;45.186;9.778;2023-06-22T03:45:02;32.72;;;15.82;;
51292;SDS011;37377;45.186;9.778;2023-06-22T03:47:59;20.35;;;14.63;;
51292;SDS011;37377;45.186;9.778;2023-06-22T03:50:59;27.23;;;16.83;;
51292;SDS011;37377;45.186;9.778;2023-06-22T03:53:57;42.70;;;32.45;;
51292;SDS011;37377;45.186;9.778;2023-06-22T03:56:56;26.17;;;19.77;;
51292;SDS011;37377;45.186;9.778;2023-06-22T03:59:32;29.13;;;19.63;;
51292;SDS011;37377;45.186;9.778;2023-06-22T04:02:23;36.03;;;21.17;;
51292;SDS011;37377;45.186;9.778;2023-06-22T04:05:16;27.65;;;18.88;;
51292;SDS011;37377;45.186;9.778;2023-06-22T04:07:48;32.13;;;18.50;;
51292;SDS011;37377;45.186;9.778;2023-06-22T04:10:40;31.90;;;18.77;;
51292;SDS011;37377;45.186;9.778;2023-06-22T04:13:08;26.52;;;18.73;;
51292;SDS011;37377;45.186;9.778;2023-06-22T04:16:37;29.25;;;19.10;;
51292;SDS011;37377;45.186;9.778;2023-06-22T04:19:04;30.48;;;18.90;;
51292;SDS011;37377;45.186;9.778;2023-06-22T04:21:31;27.33;;;18.42;;
51292;SDS011;37377;45.186;9.778;2023-06-22T04:23:58;27.17;;;18.83;;
51292;SDS011;37377;45.186;9.778;2023-06-22T04:26:26;34.35;;;18.58;;
51292;SDS011;37377;45.186;9.778;2023-06-22T04:28:52;34.00;;;18.45;;
51292;SDS011;37377;45.186;9.778;2023-06-22T04:31:22;65.80;;;19.90;;
51292;SDS011;37377;45.186;9.778;2023-06-22T04:33:59;33.58;;;17.73;;
51292;SDS011;37377;45.186;9.778;2023-06-22T04:36:39;30.58;;;16.80;;
51292;SDS011;37377;45.186;9.778;2023-06-22T04:39:07;28.45;;;17.42;;
51292;SDS011;37377;45.186;9.778;2023-06-22T04:41:39;40.28;;;17.45;;
51292;SDS011;37377;45.186;9.778;2023-06-22T04:44:10;33.38;;;16.25;;
51292;SDS011;37377;45.186;9.778;2023-06-22T04:46:37;26.08;;;17.50;;
51292;SDS011;37377;45.186;9.778;2023-06-22T04:49:09;26.88;;;15.95;;
51292;SDS011;37377;45.186;9.778;2023-06-22T04:51:37;35.65;;;16.48;;
51292;SDS011;37377;45.186;9.778;2023-06-22T04:54:04;29.83;;;15.38;;
51292;SDS011;37377;45.186;9.778;2023-06-22T04:56:32;27.83;;;14.60;;
51292;SDS011;37377;45.186;9.778;2023-06-22T04:58:59;29.10;;;14.45;;
51292;SDS011;37377;45.186;9.778;2023-06-22T05:01:26;22.77;;;14.07;;
51292;SDS011;37377;45.186;9.778;2023-06-22T05:03:53;27.05;;;12.90;;
51292;SDS011;37377;45.186;9.778;2023-06-22T05:06:23;16.33;;;12.95;;
51292;SDS011;37377;45.186;9.778;2023-06-22T05:08:53;23.05;;;12.30;;
51292;SDS011;37377;45.186;9.778;2023-06-22T05:11:25;18.67;;;12.60;;
51292;SDS011;37377;45.186;9.778;2023-06-22T05:13:51;27.13;;;13.30;;
51292;SDS011;37377;45.186;9.778;2023-06-22T05:16:19;27.52;;;12.57;;
51292;SDS011;37377;45.186;9.778;2023-06-22T05:18:51;28.00;;;12.27;;
51292;SDS011;37377;45.186;9.778;2023-06-22T05:21:21;14.55;;;10.57;;
51292;SDS011;37377;45.186;9.778;2023-06-22T05:23:48;22.25;;;11.30;;
51292;SDS011;37377;45.186;9.778;2023-06-22T05:26:15;15.60;;;10.02;;
51292;SDS011;37377;45.186;9.778;2023-06-22T05:28:42;21.48;;;10.85;;
51292;SDS011;37377;45.186;9.778;2023-06-22T05:31:13;19.27;;;10.63;;
51292;SDS011;37377;45.186;9.778;2023-06-22T05:33:40;21.85;;;10.52;;
51292;SDS011;37377;45.186;9.778;2023-06-22T05:36:07;36.00;;;11.07;;
51292;SDS011;37377;45.186;9.778;2023-06-22T05:38:34;21.95;;;11.23;;
51292;SDS011;37377;45.186;9.778;2023-06-22T05:41:01;43.15;;;12.02;;
51292;SDS011;37377;45.186;9.778;2023-06-22T05:43:28;33.80;;;10.82;;
51292;SDS011;37377;45.186;9.778;2023-06-22T05:45:55;26.90;;;10.02;;
51292;SDS011;37377;45.186;9.778;2023-06-22T05:48:22;21.63;;;9.52;;
51292;SDS011;37377;45.186;9.778;2023-06-22T05:50:49;22.73;;;9.10;;
51292;SDS011;37377;45.186;9.778;2023-06-22T05:53:16;18.13;;;8.27;;
51292;SDS011;37377;45.186;9.778;2023-06-22T05:55:42;19.25;;;8.18;;
51292;SDS011;37377;45.186;9.778;2023-06-22T05:58:09;12.35;;;6.70;;
51292;SDS011;37377;45.186;9.778;2023-06-22T06:00:36;15.15;;;6.68;;
51292;SDS011;37377;45.186;9.778;2023-06-22T06:03:03;18.35;;;6.05;;
51292;SDS011;37377;45.186;9.778;2023-06-22T06:05:30;13.38;;;6.03;;
51292;SDS011;37377;45.186;9.778;2023-06-22T06:07:57;13.07;;;5.35;;
51292;SDS011;37377;45.186;9.778;2023-06-22T06:10:25;17.60;;;6.57;;
51292;SDS011;37377;45.186;9.778;2023-06-22T06:12:52;23.48;;;6.55;;
51292;SDS011;37377;45.186;9.778;2023-06-22T06:15:19;22.27;;;6.55;;
51292;SDS011;37377;45.186;9.778;2023-06-22T06:17:49;22.13;;;6.20;;
51292;SDS011;37377;45.186;9.778;2023-06-22T06:20:18;25.38;;;7.10;;
51292;SDS011;37377;45.186;9.778;2023-06-22T06:22:45;23.08;;;7.18;;
51292;SDS011;37377;45.186;9.778;2023-06-22T06:25:13;18.08;;;6.32;;
51292;SDS011;37377;45.186;9.778;2023-06-22T06:27:45;16.30;;;5.50;;
51292;SDS011;37377;45.186;9.778;2023-06-22T06:30:13;20.08;;;5.32;;
51292;SDS011;37377;45.186;9.778;2023-06-22T06:32:40;13.13;;;5.53;;
51292;SDS011;37377;45.186;9.778;2023-06-22T06:35:08;18.08;;;5.35;;
51292;SDS011;37377;45.186;9.778;2023-06-22T06:37:36;16.02;;;5.93;;
51292;SDS011;37377;45.186;9.778;2023-06-22T06:40:03;33.17;;;6.05;;
51292;SDS011;37377;45.186;9.778;2023-06-22T06:42:32;11.80;;;5.80;;
51292;SDS011;37377;45.186;9.778;2023-06-22T06:44:59;15.65;;;6.75;;
51292;SDS011;37377;45.186;9.778;2023-06-22T06:47:25;12.85;;;5.80;;
51292;SDS011;37377;45.186;9.778;2023-06-22T06:49:52;13.05;;;5.97;;
51292;SDS011;37377;45.186;9.778;2023-06-22T06:52:19;20.02;;;7.00;;
51292;SDS011;37377;45.186;9.778;2023-06-22T06:54:47;15.20;;;6.65;;
51292;SDS011;37377;45.186;9.778;2023-06-22T06:57:14;15.70;;;6.47;;
51292;SDS011;37377;45.186;9.778;2023-06-22T06:59:42;30.42;;;14.32;;
51292;SDS011;37377;45.186;9.778;2023-06-22T07:02:09;16.85;;;6.13;;
51292;SDS011;37377;45.186;9.778;2023-06-22T07:04:35;19.77;;;6.63;;
51292;SDS011;37377;45.186;9.778;2023-06-22T07:07:02;27.90;;;7.57;;
51292;SDS011;37377;45.186;9.778;2023-06-22T07:09:29;17.77;;;6.47;;
51292;SDS011;37377;45.186;9.778;2023-06-22T07:11:56;18.95;;;7.57;;
51292;SDS011;37377;45.186;9.778;2023-06-22T07:14:23;31.17;;;7.85;;
51292;SDS011;37377;45.186;9.778;2023-06-22T07:16:50;20.55;;;8.68;;
51292;SDS011;37377;45.186;9.778;2023-06-22T07:19:17;23.42;;;6.90;;
51292;SDS011;37377;45.186;9.778;2023-06-22T07:21:50;13.13;;;6.35;;
51292;SDS011;37377;45.186;9.778;2023-06-22T07:24:17;9.60;;;6.90;;
51292;SDS011;37377;45.186;9.778;2023-06-22T07:26:45;15.43;;;6.25;;
51292;SDS011;37377;45.186;9.778;2023-06-22T07:29:12;14.57;;;7.55;;
51292;SDS011;37377;45.186;9.778;2023-06-22T07:31:39;27.30;;;7.70;;
51292;SDS011;37377;45.186;9.778;2023-06-22T07:34:07;24.83;;;8.70;;
51292;SDS011;37377;45.186;9.778;2023-06-22T07:36:34;11.68;;;7.13;;
51292;SDS011;37377;45.186;9.778;2023-06-22T07:39:02;15.05;;;6.97;;
51292;SDS011;37377;45.186;9.778;2023-06-22T07:41:30;22.27;;;7.68;;
51292;SDS011;37377;45.186;9.778;2023-06-22T07:43:57;16.90;;;7.22;;
51292;SDS011;37377;45.186;9.778;2023-06-22T07:46:24;28.80;;;7.70;;
51292;SDS011;37377;45.186;9.778;2023-06-22T07:48:51;27.33;;;9.57;;
51292;SDS011;37377;45.186;9.778;2023-06-22T07:51:22;41.07;;;8.60;;
51292;SDS011;37377;45.186;9.778;2023-06-22T07:53:49;18.80;;;8.50;;
51292;SDS011;37377;45.186;9.778;2023-06-22T07:56:16;27.95;;;8.77;;
51292;SDS011;37377;45.186;9.778;2023-06-22T07:58:46;16.90;;;8.05;;
51292;SDS011;37377;45.186;9.778;2023-06-22T08:01:16;17.50;;;8.35;;
51292;SDS011;37377;45.186;9.778;2023-06-22T08:03:43;16.83;;;7.13;;
51292;SDS011;37377;45.186;9.778;2023-06-22T08:06:10;15.93;;;9.13;;
51292;SDS011;37377;45.186;9.778;2023-06-22T08:08:37;11.07;;;8.05;;
51292;SDS011;37377;45.186;9.778;2023-06-22T08:11:05;17.60;;;8.55;;
51292;SDS011;37377;45.186;9.778;2023-06-22T08:13:32;19.88;;;9.13;;
51292;SDS011;37377;45.186;9.778;2023-06-22T08:15:58;16.20;;;9.50;;
51292;SDS011;37377;45.186;9.778;2023-06-22T08:18:25;22.85;;;10.48;;
51292;SDS011;37377;45.186;9.778;2023-06-22T08:20:52;33.65;;;10.30;;
51292;SDS011;37377;45.186;9.778;2023-06-22T08:23:30;19.38;;;9.30;;
51292;SDS011;37377;45.186;9.778;2023-06-22T08:25:57;29.92;;;10.68;;
51292;SDS011;37377;45.186;9.778;2023-06-22T08:28:24;23.67;;;11.25;;
51292;SDS011;37377;45.186;9.778;2023-06-22T08:30:51;22.92;;;10.05;;
51292;SDS011;37377;45.186;9.778;2023-06-22T08:33:17;29.30;;;11.13;;
51292;SDS011;37377;45.186;9.778;2023-06-22T08:35:57;26.35;;;12.43;;
51292;SDS011;37377;45.186;9.778;2023-06-22T08:38:24;24.45;;;11.25;;
51292;SDS011;37377;45.186;9.778;2023-06-22T08:40:51;27.95;;;12.27;;
51292;SDS011;37377;45.186;9.778;2023-06-22T08:43:19;25.50;;;13.15;;
51292;SDS011;37377;45.186;9.778;2023-06-22T08:45:46;27.75;;;12.25;;
51292;SDS011;37377;45.186;9.778;2023-06-22T08:48:12;26.65;;;10.18;;
51292;SDS011;37377;45.186;9.778;2023-06-22T08:50:39;23.15;;;10.25;;
51292;SDS011;37377;45.186;9.778;2023-06-22T08:53:07;20.52;;;9.35;;
51292;SDS011;37377;45.186;9.778;2023-06-22T08:55:34;25.73;;;10.80;;
51292;SDS011;37377;45.186;9.778;2023-06-22T08:58:01;29.05;;;12.05;;
51292;SDS011;37377;45.186;9.778;2023-06-22T09:00:28;23.52;;;8.27;;
51292;SDS011;37377;45.186;9.778;2023-06-22T09:02:59;24.65;;;9.48;;
51292;SDS011;37377;45.186;9.778;2023-06-22T09:05:26;16.20;;;8.15;;
51292;SDS011;37377;45.186;9.778;2023-06-22T09:07:55;23.13;;;10.45;;
51292;SDS011;37377;45.186;9.778;2023-06-22T09:10:22;21.55;;;9.15;;
51292;SDS011;37377;45.186;9.778;2023-06-22T09:12:49;17.20;;;7.65;;
51292;SDS011;37377;45.186;9.778;2023-06-22T09:15:21;22.42;;;7.40;;
51292;SDS011;37377;45.186;9.778;2023-06-22T09:17:48;23.60;;;8.65;;
51292;SDS011;37377;45.186;9.778;2023-06-22T09:20:15;33.67;;;10.07;;
51292;SDS011;37377;45.186;9.778;2023-06-22T09:22:42;30.27;;;9.23;;
51292;SDS011;37377;45.186;9.778;2023-06-22T09:25:09;23.67;;;7.07;;
51292;SDS011;37377;45.186;9.778;2023-06-22T09:27:36;21.40;;;8.80;;
51292;SDS011;37377;45.186;9.778;2023-06-22T09:30:03;23.40;;;7.97;;
51292;SDS011;37377;45.186;9.778;2023-06-22T09:32:30;21.13;;;8.40;;
51292;SDS011;37377;45.186;9.778;2023-06-22T09:34:57;19.52;;;7.55;;
51292;SDS011;37377;45.186;9.778;2023-06-22T09:37:24;18.30;;;8.20;;
51292;SDS011;37377;45.186;9.778;2023-06-22T09:39:50;17.17;;;7.50;;
51292;SDS011;37377;45.186;9.778;2023-06-22T09:42:17;18.63;;;7.55;;
51292;SDS011;37377;45.186;9.778;2023-06-22T09:44:44;27.38;;;8.60;;
51292;SDS011;37377;45.186;9.778;2023-06-22T09:47:11;19.10;;;8.50;;
51292;SDS011;37377;45.186;9.778;2023-06-22T09:49:38;15.77;;;8.60;;
51292;SDS011;37377;45.186;9.778;2023-06-22T09:52:13;19.92;;;8.38;;
51292;SDS011;37377;45.186;9.778;2023-06-22T09:54:40;20.17;;;9.20;;
51292;SDS011;37377;45.186;9.778;2023-06-22T09:57:07;23.02;;;10.18;;
51292;SDS011;37377;45.186;9.778;2023-06-22T09:59:34;22.23;;;8.43;;
51292;SDS011;37377;45.186;9.778;2023-06-22T10:02:01;16.25;;;8.43;;
51292;SDS011;37377;45.186;9.778;2023-06-22T10:04:28;17.58;;;8.48;;
51292;SDS011;37377;45.186;9.778;2023-06-22T10:06:55;18.20;;;7.90;;
51292;SDS011;37377;45.186;9.778;2023-06-22T10:09:22;14.82;;;7.47;;
51292;SDS011;37377;45.186;9.778;2023-06-22T10:11:49;28.35;;;7.85;;
51292;SDS011;37377;45.186;9.778;2023-06-22T10:14:16;18.50;;;7.50;;
51292;SDS011;37377;45.186;9.778;2023-06-22T10:16:43;20.55;;;8.40;;
51292;SDS011;37377;45.186;9.778;2023-06-22T10:19:10;22.27;;;7.38;;
51292;SDS011;37377;45.186;9.778;2023-06-22T10:21:36;26.98;;;7.40;;
51292;SDS011;37377;45.186;9.778;2023-06-22T10:24:03;26.77;;;8.48;;
51292;SDS011;37377;45.186;9.778;2023-06-22T10:26:33;23.13;;;6.93;;
51292;SDS011;37377;45.186;9.778;2023-06-22T10:29:00;13.48;;;7.10;;
51292;SDS011;37377;45.186;9.778;2023-06-22T10:34:08;22.25;;;6.60;;
51292;SDS011;37377;45.186;9.778;2023-06-22T10:36:35;21.80;;;7.20;;
51292;SDS011;37377;45.186;9.778;2023-06-22T10:39:02;27.33;;;7.38;;
51292;SDS011;37377;45.186;9.778;2023-06-22T10:41:29;20.88;;;7.18;;
51292;SDS011;37377;45.186;9.778;2023-06-22T10:43:57;21.85;;;7.68;;
51292;SDS011;37377;45.186;9.778;2023-06-22T10:46:25;18.77;;;8.30;;
51292;SDS011;37377;45.186;9.778;2023-06-22T10:48:52;21.75;;;8.73;;
51292;SDS011;37377;45.186;9.778;2023-06-22T10:51:21;29.83;;;8.48;;
51292;SDS011;37377;45.186;9.778;2023-06-22T10:53:48;28.85;;;8.90;;
51292;SDS011;37377;45.186;9.778;2023-06-22T10:56:15;25.52;;;9.85;;
51292;SDS011;37377;45.186;9.778;2023-06-22T10:58:44;25.63;;;10.52;;
51292;SDS011;37377;45.186;9.778;2023-06-22T11:01:11;22.15;;;10.75;;
51292;SDS011;37377;45.186;9.778;2023-06-22T11:03:59;18.35;;;11.02;;
51292;SDS011;37377;45.186;9.778;2023-06-22T11:06:26;35.75;;;9.82;;
51292;SDS011;37377;45.186;9.778;2023-06-22T11:08:53;35.97;;;11.23;;
51292;SDS011;37377;45.186;9.778;2023-06-22T11:11:32;18.33;;;8.63;;
51292;SDS011;37377;45.186;9.778;2023-06-22T11:13:59;24.38;;;7.88;;
51292;SDS011;37377;45.186;9.778;2023-06-22T11:16:26;19.50;;;6.75;;
51292;SDS011;37377;45.186;9.778;2023-06-22T11:18:53;19.55;;;7.00;;
51292;SDS011;37377;45.186;9.778;2023-06-22T11:21:21;25.25;;;6.25;;
51292;SDS011;37377;45.186;9.778;2023-06-22T11:23:47;14.30;;;5.40;;
51292;SDS011;37377;45.186;9.778;2023-06-22T11:26:15;26.92;;;6.38;;
51292;SDS011;37377;45.186;9.778;2023-06-22T11:28:42;18.83;;;6.63;;
51292;SDS011;37377;45.186;9.778;2023-06-22T11:31:08;18.90;;;6.57;;
51292;SDS011;37377;45.186;9.778;2023-06-22T11:33:51;20.55;;;7.90;;
51292;SDS011;37377;45.186;9.778;2023-06-22T11:36:18;24.95;;;8.73;;
51292;SDS011;37377;45.186;9.778;2023-06-22T11:38:45;28.48;;;7.65;;
51292;SDS011;37377;45.186;9.778;2023-06-22T11:41:12;18.25;;;8.10;;
51292;SDS011;37377;45.186;9.778;2023-06-22T11:43:42;25.70;;;7.93;;
51292;SDS011;37377;45.186;9.778;2023-06-22T11:46:18;17.27;;;8.48;;
51292;SDS011;37377;45.186;9.778;2023-06-22T11:49:18;18.67;;;8.38;;
51292;SDS011;37377;45.186;9.778;2023-06-22T11:51:45;18.95;;;6.80;;
51292;SDS011;37377;45.186;9.778;2023-06-22T11:54:17;13.73;;;6.97;;
51292;SDS011;37377;45.186;9.778;2023-06-22T11:56:46;21.05;;;7.32;;
51292;SDS011;37377;45.186;9.778;2023-06-22T11:59:27;22.17;;;6.95;;
51292;SDS011;37377;45.186;9.778;2023-06-22T12:02:24;12.05;;;7.00;;
51292;SDS011;37377;45.186;9.778;2023-06-22T12:04:51;18.58;;;6.80;;
51292;SDS011;37377;45.186;9.778;2023-06-22T12:07:19;22.73;;;7.03;;
51292;SDS011;37377;45.186;9.778;2023-06-22T12:09:46;20.45;;;6.53;;
51292;SDS011;37377;45.186;9.778;2023-06-22T12:12:18;19.02;;;6.47;;
51292;SDS011;37377;45.186;9.778;2023-06-22T12:14:45;13.75;;;6.18;;
51292;SDS011;37377;45.186;9.778;2023-06-22T12:17:13;21.45;;;6.63;;
51292;SDS011;37377;45.186;9.778;2023-06-22T12:19:44;19.58;;;7.00;;
51292;SDS011;37377;45.186;9.778;2023-06-22T12:22:11;16.10;;;6.68;;
51292;SDS011;37377;45.186;9.778;2023-06-22T12:24:38;31.95;;;7.45;;
51292;SDS011;37377;45.186;9.778;2023-06-22T12:27:04;14.02;;;7.00;;
51292;SDS011;37377;45.186;9.778;2023-06-22T12:29:31;28.27;;;7.35;;
51292;SDS011;37377;45.186;9.778;2023-06-22T12:31:58;20.95;;;7.13;;
51292;SDS011;37377;45.186;9.778;2023-06-22T12:34:25;28.80;;;7.22;;
51292;SDS011;37377;45.186;9.778;2023-06-22T12:36:52;18.63;;;6.97;;
51292;SDS011;37377;45.186;9.778;2023-06-22T12:39:21;29.33;;;7.22;;
51292;SDS011;37377;45.186;9.778;2023-06-22T12:41:47;25.67;;;7.55;;
51292;SDS011;37377;45.186;9.778;2023-06-22T12:44:14;25.17;;;7.55;;
51292;SDS011;37377;45.186;9.778;2023-06-22T12:46:41;21.10;;;7.03;;
51292;SDS011;37377;45.186;9.778;2023-06-22T12:49:08;40.95;;;8.45;;
51292;SDS011;37377;45.186;9.778;2023-06-22T12:51:39;19.05;;;7.40;;
51292;SDS011;37377;45.186;9.778;2023-06-22T12:54:06;21.88;;;7.38;;
51292;SDS011;37377;45.186;9.778;2023-06-22T12:56:33;15.32;;;7.47;;
51292;SDS011;37377;45.186;9.778;2023-06-22T12:59:00;31.10;;;7.32;;
51292;SDS011;37377;45.186;9.778;2023-06-22T13:01:30;32.83;;;7.28;;
51292;SDS011;37377;45.186;9.778;2023-06-22T13:03:58;31.48;;;12.00;;
51292;SDS011;37377;45.186;9.778;2023-06-22T13:06:25;22.75;;;6.53;;
51292;SDS011;37377;45.186;9.778;2023-06-22T13:08:52;19.23;;;6.38;;
51292;SDS011;37377;45.186;9.778;2023-06-22T13:11:22;13.63;;;7.15;;
51292;SDS011;37377;45.186;9.778;2023-06-22T13:13:49;20.42;;;7.05;;
51292;SDS011;37377;45.186;9.778;2023-06-22T13:16:15;23.02;;;7.10;;
51292;SDS011;37377;45.186;9.778;2023-06-22T13:18:43;18.00;;;6.80;;
51292;SDS011;37377;45.186;9.778;2023-06-22T13:21:10;24.48;;;7.03;;
51292;SDS011;37377;45.186;9.778;2023-06-22T13:23:37;25.85;;;6.60;;
51292;SDS011;37377;45.186;9.778;2023-06-22T13:26:03;25.70;;;6.43;;
51292;SDS011;37377;45.186;9.778;2023-06-22T13:28:30;15.13;;;6.38;;
51292;SDS011;37377;45.186;9.778;2023-06-22T13:30:57;22.30;;;6.95;;
51292;SDS011;37377;45.186;9.778;2023-06-22T13:33:24;28.52;;;7.88;;
51292;SDS011;37377;45.186;9.778;2023-06-22T13:35:50;22.05;;;8.10;;
51292;SDS011;37377;45.186;9.778;2023-06-22T13:38:17;21.45;;;7.45;;
51292;SDS011;37377;45.186;9.778;2023-06-22T13:40:44;30.80;;;7.60;;
51292;SDS011;37377;45.186;9.778;2023-06-22T13:43:12;153.70;;;12.43;;
51292;SDS011;37377;45.186;9.778;2023-06-22T13:45:38;22.63;;;7.55;;
51292;SDS011;37377;45.186;9.778;2023-06-22T13:48:05;23.40;;;7.57;;
51292;SDS011;37377;45.186;9.778;2023-06-22T13:50:32;23.67;;;7.78;;
51292;SDS011;37377;45.186;9.778;2023-06-22T13:52:59;23.50;;;7.97;;
51292;SDS011;37377;45.186;9.778;2023-06-22T13:55:26;17.30;;;6.93;;
51292;SDS011;37377;45.186;9.778;2023-06-22T13:57:53;28.27;;;8.20;;
51292;SDS011;37377;45.186;9.778;2023-06-22T14:00:19;18.45;;;7.60;;
51292;SDS011;37377;45.186;9.778;2023-06-22T14:02:46;39.78;;;8.63;;
51292;SDS011;37377;45.186;9.778;2023-06-22T14:05:13;23.70;;;7.80;;
51292;SDS011;37377;45.186;9.778;2023-06-22T14:07:40;24.77;;;7.72;;
51292;SDS011;37377;45.186;9.778;2023-06-22T14:10:07;36.33;;;7.38;;
51292;SDS011;37377;45.186;9.778;2023-06-22T14:12:34;27.98;;;6.90;;
51292;SDS011;37377;45.186;9.778;2023-06-22T14:15:01;22.38;;;7.80;;
51292;SDS011;37377;45.186;9.778;2023-06-22T14:17:27;16.40;;;7.50;;
51292;SDS011;37377;45.186;9.778;2023-06-22T14:19:54;31.00;;;8.13;;
51292;SDS011;37377;45.186;9.778;2023-06-22T14:22:22;25.00;;;8.00;;
51292;SDS011;37377;45.186;9.778;2023-06-22T14:24:48;17.88;;;7.72;;
51292;SDS011;37377;45.186;9.778;2023-06-22T14:27:15;20.08;;;7.90;;
51292;SDS011;37377;45.186;9.778;2023-06-22T14:29:42;33.05;;;9.45;;
51292;SDS011;37377;45.186;9.778;2023-06-22T14:32:09;21.52;;;9.02;;
51292;SDS011;37377;45.186;9.778;2023-06-22T14:34:35;34.25;;;8.63;;
51292;SDS011;37377;45.186;9.778;2023-06-22T14:37:06;18.33;;;7.78;;
51292;SDS011;37377;45.186;9.778;2023-06-22T14:39:33;26.58;;;12.50;;
51292;SDS011;37377;45.186;9.778;2023-06-22T14:42:00;21.65;;;10.10;;
51292;SDS011;37377;45.186;9.778;2023-06-22T14:44:27;23.13;;;8.02;;
51292;SDS011;37377;45.186;9.778;2023-06-22T14:46:55;14.07;;;7.95;;
51292;SDS011;37377;45.186;9.778;2023-06-22T14:49:22;20.63;;;11.77;;
51292;SDS011;37377;45.186;9.778;2023-06-22T14:51:49;21.05;;;7.82;;
51292;SDS011;37377;45.186;9.778;2023-06-22T14:54:16;28.35;;;8.25;;
51292;SDS011;37377;45.186;9.778;2023-06-22T14:56:42;24.50;;;7.13;;
51292;SDS011;37377;45.186;9.778;2023-06-22T14:59:09;20.35;;;7.65;;